Time;durP1;ratioP1;P1;durP2;ratioP2;P2;SDS_P1;SDS_P2;PMS_P1;PMS_P2;Temp;Humidity;BMP_temperature;BMP_pressure;BME280_temperature;BME280_humidity;BME280_pressure;Samples;Min_cycle;Max_cycle;Signal;HPM_P1;HPM_P2
2020/12/07 00:03:09;;;;;;;8.43;6.83;;;6.70;46.20;;;;;;10325097;28;20972;-73
2020/12/07 00:08:12;;;;;;;6.77;5.87;;;6.70;46.10;;;;;;10333472;28;20234;-73
2020/12/07 00:13:16;;;;;;;6.70;5.73;;;6.70;46.20;;;;;;10344000;28;20599;-74
2020/12/07 00:18:18;;;;;;;5.70;5.10;;;6.70;46.00;;;;;;10338416;28;20272;-69
2020/12/07 00:23:21;;;;;;;6.30;5.43;;;6.70;46.20;;;;;;10320712;28;24915;-69
2020/12/07 00:28:24;;;;;;;5.47;4.93;;;6.70;46.30;;;;;;10319972;28;20601;-69
2020/12/07 00:33:26;;;;;;;5.90;5.30;;;6.70;46.20;;;;;;10321121;28;20227;-69
2020/12/07 00:38:29;;;;;;;4.93;4.43;;;6.80;46.20;;;;;;10312595;28;20773;-73
2020/12/07 00:43:32;;;;;;;4.77;4.37;;;6.80;46.30;;;;;;10320469;28;20317;-74
2020/12/07 00:48:34;;;;;;;4.63;4.20;;;6.80;46.10;;;;;;10337634;28;20222;-74
2020/12/07 00:53:37;;;;;;;4.13;3.73;;;6.70;46.10;;;;;;10325489;28;20224;-69
2020/12/07 00:58:39;;;;;;;4.13;3.73;;;6.80;46.20;;;;;;10324001;28;20707;-69
2020/12/07 01:03:41;;;;;;;4.17;3.83;;;6.80;46.00;;;;;;10320097;28;20227;-69
2020/12/07 01:08:44;;;;;;;4.10;3.80;;;6.80;46.00;;;;;;10319318;28;20238;-73
2020/12/07 01:13:47;;;;;;;4.17;3.87;;;6.70;46.00;;;;;;10319338;28;20223;-69
2020/12/07 01:18:50;;;;;;;4.33;4.00;;;6.80;45.90;;;;;;10316840;28;20233;-69
2020/12/07 01:23:53;;;;;;;4.00;3.70;;;6.80;46.00;;;;;;10310425;28;20726;-72
2020/12/07 01:28:55;;;;;;;4.43;4.13;;;6.70;46.00;;;;;;10318150;28;20234;-73
2020/12/07 01:33:57;;;;;;;4.17;3.87;;;6.70;45.80;;;;;;10324980;28;20230;-73
2020/12/07 01:39:00;;;;;;;4.70;4.30;;;6.70;45.80;;;;;;10319064;28;20230;-73
2020/12/07 01:44:02;;;;;;;4.77;4.40;;;6.80;46.00;;;;;;10318210;28;20309;-73
2020/12/07 01:49:05;;;;;;;5.03;4.63;;;6.60;45.70;;;;;;10333408;28;20700;-73
2020/12/07 01:54:08;;;;;;;5.47;5.07;;;6.60;45.80;;;;;;10322027;28;20252;-72
2020/12/07 01:59:11;;;;;;;6.40;5.90;;;6.50;46.00;;;;;;10321433;28;20273;-69
2020/12/07 02:04:13;;;;;;;6.47;5.97;;;6.40;45.90;;;;;;10351279;23;20230;-71
2020/12/07 02:09:16;;;;;;;7.20;6.50;;;6.30;46.00;;;;;;10346385;28;20233;-71
2020/12/07 02:14:19;;;;;;;6.87;6.30;;;6.30;46.30;;;;;;10300489;28;20235;-71
2020/12/07 02:19:21;;;;;;;7.30;6.70;;;6.20;46.30;;;;;;10275300;28;20884;-71
2020/12/07 02:24:24;;;;;;;6.93;6.43;;;6.20;46.40;;;;;;10279538;28;20224;-71
2020/12/07 02:29:29;;;;;;;7.00;6.40;;;6.30;46.70;;;;;;10275455;28;20226;-71
2020/12/07 02:34:31;;;;;;;6.60;6.10;;;6.30;46.70;;;;;;10293973;28;20318;-71
2020/12/07 02:39:35;;;;;;;6.73;6.13;;;6.40;46.40;;;;;;10270927;28;20711;-71
2020/12/07 02:44:38;;;;;;;6.67;6.07;;;6.40;46.30;;;;;;10293076;28;20274;-72
2020/12/07 02:49:40;;;;;;;5.87;5.43;;;6.40;46.30;;;;;;10366815;28;20316;-67
2020/12/07 02:54:43;;;;;;;6.93;6.33;;;6.40;46.30;;;;;;10366488;28;20241;-71
2020/12/07 02:59:45;;;;;;;6.77;6.17;;;6.40;46.30;;;;;;10390455;28;20221;-71
2020/12/07 03:04:48;;;;;;;7.20;6.60;;;6.40;46.30;;;;;;10409272;28;20612;-71
2020/12/07 03:09:51;;;;;;;7.00;6.37;;;6.40;46.30;;;;;;10371253;28;20236;-72
2020/12/07 03:14:53;;;;;;;6.93;6.43;;;6.40;46.50;;;;;;10373290;28;20244;-67
2020/12/07 03:19:55;;;;;;;7.20;6.60;;;6.40;46.40;;;;;;10363194;28;20241;-71
2020/12/07 03:25:00;;;;;;;6.57;6.07;;;6.40;46.50;;;;;;10366887;28;20706;-67
2020/12/07 03:30:03;;;;;;;6.43;5.93;;;6.30;46.50;;;;;;10364115;28;20219;-71
2020/12/07 03:35:05;;;;;;;6.27;5.77;;;6.30;46.50;;;;;;10373431;28;20231;-70
2020/12/07 03:40:08;;;;;;;6.00;5.50;;;6.40;46.60;;;;;;10365563;28;20229;-70
2020/12/07 03:45:10;;;;;;;5.87;5.47;;;6.40;46.60;;;;;;10367029;28;20231;-71
2020/12/07 03:50:12;;;;;;;5.87;5.37;;;6.40;46.50;;;;;;10370409;28;20226;-71
2020/12/07 03:55:16;;;;;;;5.87;5.37;;;6.40;46.60;;;;;;10362205;28;20244;-67
2020/12/07 04:00:18;;;;;;;5.53;5.13;;;6.40;46.70;;;;;;10370391;28;20234;-67
2020/12/07 04:05:25;;;;;;;5.10;4.70;;;6.40;46.60;;;;;;10366541;28;20244;-71
2020/12/07 04:10:28;;;;;;;5.50;5.07;;;6.40;46.40;;;;;;10363187;28;20226;-67
2020/12/07 04:15:31;;;;;;;5.53;5.03;;;6.50;46.50;;;;;;10365805;28;20222;-67
2020/12/07 04:20:33;;;;;;;5.13;4.73;;;6.50;46.30;;;;;;10340089;28;20223;-71
2020/12/07 04:25:36;;;;;;;6.03;5.53;;;6.50;46.30;;;;;;10350544;28;20223;-71
2020/12/07 04:30:40;;;;;;;5.70;5.20;;;6.50;46.40;;;;;;10377556;28;20226;-71
2020/12/07 04:35:42;;;;;;;5.90;5.40;;;6.50;46.20;;;;;;10373544;28;20223;-71
2020/12/07 04:40:46;;;;;;;6.03;5.53;;;6.50;46.20;;;;;;10362147;28;20728;-67
2020/12/07 04:45:48;;;;;;;6.27;5.67;;;6.50;46.30;;;;;;10365285;28;20778;-71
2020/12/07 04:50:50;;;;;;;6.60;5.90;;;6.50;46.20;;;;;;10360950;28;20230;-71
2020/12/07 04:55:58;;;;;;;6.63;5.93;;;6.50;46.20;;;;;;10368821;28;20233;-67
2020/12/07 05:01:00;;;;;;;8.73;8.03;;;6.40;46.30;;;;;;10358223;28;20226;-67
2020/12/07 05:06:04;;;;;;;9.17;8.37;;;6.40;46.10;;;;;;10365148;28;20222;-71
2020/12/07 05:11:11;;;;;;;7.00;6.27;;;6.40;46.00;;;;;;10367783;28;20748;-71
2020/12/07 05:16:14;;;;;;;8.93;6.70;;;6.40;46.00;;;;;;10357525;28;20737;-71
2020/12/07 05:21:16;;;;;;;6.30;5.80;;;6.30;45.90;;;;;;10360775;28;20500;-67
2020/12/07 05:26:21;;;;;;;6.57;6.07;;;6.30;45.80;;;;;;10359307;28;20710;-67
2020/12/07 05:31:23;;;;;;;6.87;6.27;;;6.30;46.00;;;;;;10365458;28;20722;-71
2020/12/07 05:36:25;;;;;;;6.33;5.77;;;6.20;45.80;;;;;;10353858;28;20222;-67
2020/12/07 05:41:30;;;;;;;6.47;5.97;;;6.20;45.90;;;;;;10357114;28;20241;-67
2020/12/07 05:46:35;;;;;;;6.50;5.90;;;6.20;46.00;;;;;;10365975;28;20336;-67
2020/12/07 05:51:39;;;;;;;5.70;5.23;;;6.20;46.10;;;;;;10366323;28;20237;-67
2020/12/07 05:56:47;;;;;;;7.07;6.47;;;6.20;46.10;;;;;;10364512;28;20219;-67
2020/12/07 06:01:50;;;;;;;5.70;5.30;;;6.10;46.10;;;;;;10369769;28;20229;-67
2020/12/07 06:06:57;;;;;;;4.80;4.50;;;6.10;46.10;;;;;;10367391;28;20232;-72
2020/12/07 06:12:05;;;;;;;5.00;4.60;;;6.10;46.30;;;;;;10378809;28;20599;-72
2020/12/07 06:17:10;;;;;;;5.27;4.77;;;6.10;46.50;;;;;;10387495;28;20624;-68
2020/12/07 06:22:14;;;;;;;4.80;4.40;;;6.20;46.50;;;;;;10390182;28;20234;-68
2020/12/07 06:27:17;;;;;;;5.50;5.00;;;6.20;46.40;;;;;;10387542;28;20229;-72
2020/12/07 06:32:20;;;;;;;5.63;5.23;;;6.30;46.30;;;;;;10390749;28;20231;-72
2020/12/07 06:37:25;;;;;;;4.93;4.53;;;6.30;46.20;;;;;;10356252;28;20223;-68
2020/12/07 06:42:28;;;;;;;4.30;4.00;;;6.30;46.20;;;;;;10370175;28;20226;-72
2020/12/07 06:47:32;;;;;;;4.83;4.33;;;6.30;46.20;;;;;;10397442;28;20233;-73
2020/12/07 06:52:36;;;;;;;4.30;4.00;;;6.30;46.30;;;;;;10385774;28;20227;-68
2020/12/07 06:57:42;;;;;;;4.70;4.40;;;6.30;46.30;;;;;;10362798;28;20233;-68
2020/12/07 07:02:45;;;;;;;4.57;4.27;;;6.30;46.50;;;;;;10374023;28;20236;-68
2020/12/07 07:07:48;;;;;;;6.37;5.97;;;6.40;46.40;;;;;;10369657;28;20230;-68
2020/12/07 07:12:51;;;;;;;7.40;6.87;;;6.40;46.30;;;;;;10376996;28;20233;-68
2020/12/07 07:17:55;;;;;;;5.67;5.27;;;6.40;46.20;;;;;;10368077;28;20218;-72
2020/12/07 07:22:59;;;;;;;4.70;4.40;;;6.40;46.20;;;;;;10380602;28;20726;-73
2020/12/07 07:28:07;;;;;;;5.17;4.77;;;6.40;46.20;;;;;;10372864;28;20206;-72
2020/12/07 07:33:09;;;;;;;5.30;4.90;;;6.40;46.30;;;;;;10371427;28;20223;-72
2020/12/07 07:38:12;;;;;;;4.70;4.40;;;6.40;46.30;;;;;;10359594;28;20234;-72
2020/12/07 07:43:15;;;;;;;4.97;4.60;;;6.40;46.30;;;;;;10362138;28;20736;-72
2020/12/07 07:48:21;;;;;;;4.77;4.47;;;6.40;46.40;;;;;;10362723;28;20237;-72
2020/12/07 08:20:11;;;;;;;4.80;4.40;;;6.60;46.90;;;;;;10415818;28;20229;-68
2020/12/07 08:25:17;;;;;;;5.00;4.60;;;6.70;46.90;;;;;;10442686;28;20595;-68
2020/12/07 08:30:20;;;;;;;5.23;4.80;;;6.80;47.50;;;;;;10431246;28;20718;-72
2020/12/07 08:35:24;;;;;;;5.17;4.70;;;7.00;47.20;;;;;;10423913;28;20719;-72
2020/12/07 08:40:27;;;;;;;4.27;3.97;;;7.10;47.10;;;;;;10435349;28;20304;-71
2020/12/07 08:45:30;;;;;;;4.47;4.17;;;7.30;47.00;;;;;;10428836;28;20588;-71
2020/12/07 08:50:32;;;;;;;4.93;4.53;;;7.40;46.80;;;;;;10426915;28;20222;-71
2020/12/07 08:55:38;;;;;;;5.27;4.87;;;7.50;46.70;;;;;;10415530;28;20230;-71
2020/12/07 09:00:41;;;;;;;6.43;5.93;;;7.60;46.30;;;;;;10436683;28;20723;-71
2020/12/07 09:05:43;;;;;;;6.90;6.33;;;7.60;46.00;;;;;;10433383;28;20225;-73
2020/12/07 09:10:45;;;;;;;5.50;5.10;;;7.60;46.00;;;;;;10417857;28;20587;-73
2020/12/07 09:15:48;;;;;;;5.60;5.20;;;7.70;46.00;;;;;;10437625;28;20228;-74
2020/12/07 09:20:51;;;;;;;4.83;4.50;;;7.70;46.50;;;;;;10434741;28;20231;-74
2020/12/07 09:25:53;;;;;;;8.27;7.57;;;7.70;45.80;;;;;;10422653;28;20229;-73
2020/12/07 09:30:57;;;;;;;5.30;4.90;;;7.60;45.60;;;;;;10421089;28;20249;-73
2020/12/07 09:36:00;;;;;;;4.40;4.10;;;7.70;45.50;;;;;;10422247;28;20224;-73
2020/12/07 09:41:02;;;;;;;4.20;3.90;;;7.60;45.40;;;;;;10418547;28;20248;-73
2020/12/07 09:46:05;;;;;;;4.67;4.33;;;7.60;45.40;;;;;;10423237;28;20722;-73
2020/12/07 09:51:11;;;;;;;4.40;4.00;;;7.60;45.20;;;;;;10438709;28;20229;-73
2020/12/07 09:56:14;;;;;;;4.23;3.93;;;7.60;45.40;;;;;;10437538;28;20220;-73
2020/12/07 10:01:17;;;;;;;4.03;3.83;;;7.60;45.50;;;;;;10424762;28;20332;-73
2020/12/07 10:06:19;;;;;;;4.10;3.80;;;7.60;45.30;;;;;;10440188;28;20233;-73
2020/12/07 10:11:21;;;;;;;4.07;3.77;;;7.60;45.40;;;;;;10452038;28;20243;-73
2020/12/07 10:16:24;;;;;;;4.10;3.80;;;7.60;45.40;;;;;;10426985;28;20235;-74
2020/12/07 10:21:27;;;;;;;3.40;3.20;;;7.60;45.50;;;;;;10436593;28;20708;-74
2020/12/07 10:26:30;;;;;;;4.23;3.93;;;7.70;45.60;;;;;;10423116;28;20221;-73
2020/12/07 10:31:33;;;;;;;3.53;3.33;;;7.70;45.60;;;;;;10434711;28;20746;-73
2020/12/07 10:36:36;;;;;;;3.70;3.50;;;7.70;45.10;;;;;;10444047;28;20227;-72
2020/12/07 10:41:39;;;;;;;3.60;3.40;;;7.70;44.90;;;;;;10435799;28;20231;-68
2020/12/07 10:46:42;;;;;;;3.17;2.97;;;7.70;45.00;;;;;;10427272;28;20257;-68
2020/12/07 10:51:47;;;;;;;3.27;3.07;;;7.80;45.20;;;;;;10439801;28;20229;-68
2020/12/07 10:56:49;;;;;;;3.20;3.00;;;7.80;45.00;;;;;;10430249;28;20217;-68
2020/12/07 11:01:54;;;;;;;3.07;2.87;;;7.80;45.00;;;;;;10435923;28;20221;-68
2020/12/07 11:06:58;;;;;;;3.33;3.13;;;7.80;45.10;;;;;;10430922;28;20325;-68
2020/12/07 11:12:03;;;;;;;3.57;3.37;;;7.90;45.40;;;;;;10421440;28;20221;-68
2020/12/07 11:17:08;;;;;;;3.20;3.00;;;7.90;45.30;;;;;;10427545;28;20249;-68
2020/12/07 11:22:10;;;;;;;3.47;3.27;;;8.00;45.20;;;;;;10438843;28;20229;-68
2020/12/07 11:27:13;;;;;;;3.47;3.27;;;8.10;45.30;;;;;;10424420;28;20324;-68
2020/12/07 11:32:16;;;;;;;3.07;2.87;;;8.20;45.30;;;;;;10415523;28;20739;-68
2020/12/07 11:37:18;;;;;;;3.33;3.13;;;8.20;44.70;;;;;;10421264;28;20232;-69
2020/12/07 11:42:34;;;;;;;3.70;3.30;;;8.30;44.50;;;;;;10423775;28;20763;-70
2020/12/07 11:47:37;;;;;;;3.10;2.90;;;8.20;44.50;;;;;;10423337;28;20617;-69
2020/12/07 11:52:40;;;;;;;3.00;2.80;;;8.20;44.60;;;;;;10412365;28;20874;-69
2020/12/07 11:57:45;;;;;;;3.10;2.90;;;8.30;44.80;;;;;;10425126;28;20217;-69
2020/12/07 12:02:48;;;;;;;3.60;3.30;;;8.30;44.80;;;;;;10414200;28;20229;-69
2020/12/07 12:07:50;;;;;;;2.97;2.77;;;8.30;44.70;;;;;;10428642;28;20827;-69
2020/12/07 12:12:52;;;;;;;3.37;3.17;;;8.40;44.60;;;;;;10409961;28;20226;-69
2020/12/07 12:17:55;;;;;;;3.03;2.83;;;8.40;44.40;;;;;;10424261;28;20236;-69
2020/12/07 12:22:57;;;;;;;3.20;3.00;;;8.40;44.10;;;;;;10433494;28;20221;-69
2020/12/07 12:27:59;;;;;;;3.20;3.00;;;8.40;44.20;;;;;;10435023;28;20225;-69
2020/12/07 12:33:03;;;;;;;2.77;2.57;;;8.40;44.30;;;;;;10398522;28;20229;-70
2020/12/07 12:38:05;;;;;;;3.33;3.03;;;8.40;44.10;;;;;;10411924;28;20751;-70
2020/12/07 12:43:08;;;;;;;3.30;3.10;;;8.40;44.10;;;;;;10435255;28;20240;-73
2020/12/07 12:48:11;;;;;;;3.50;3.20;;;8.40;44.10;;;;;;10435421;28;20260;-73
2020/12/07 12:53:13;;;;;;;3.03;2.83;;;8.40;44.10;;;;;;10425521;28;20264;-73
2020/12/07 12:58:15;;;;;;;2.93;2.73;;;8.40;44.30;;;;;;10420144;28;20826;-74
2020/12/07 13:03:19;;;;;;;2.70;2.60;;;8.40;44.10;;;;;;10436859;28;20224;-73
2020/12/07 13:08:21;;;;;;;2.97;2.77;;;8.50;44.10;;;;;;10412086;28;20319;-73
2020/12/07 13:13:23;;;;;;;3.00;2.80;;;8.40;44.10;;;;;;10421230;28;20231;-73
2020/12/07 13:18:33;;;;;;;2.83;2.63;;;8.40;44.20;;;;;;10426763;28;20307;-73
2020/12/07 13:23:40;;;;;;;2.70;2.50;;;8.40;44.00;;;;;;10437451;28;20596;-73
2020/12/07 13:28:42;;;;;;;2.63;2.50;;;8.40;44.00;;;;;;10416238;28;20225;-73
2020/12/07 13:33:45;;;;;;;3.30;3.00;;;8.40;43.90;;;;;;10432802;28;20235;-73
2020/12/07 13:38:48;;;;;;;3.20;2.97;;;8.40;43.80;;;;;;10426555;28;20221;-73
2020/12/07 13:43:50;;;;;;;3.07;2.87;;;8.40;43.90;;;;;;10418930;28;20227;-73
2020/12/07 13:48:53;;;;;;;3.50;3.30;;;8.30;44.00;;;;;;10426274;28;20221;-74
2020/12/07 13:53:55;;;;;;;4.37;3.90;;;8.30;43.90;;;;;;10429468;28;20233;-73
2020/12/07 13:58:58;;;;;;;4.33;4.03;;;8.30;43.90;;;;;;10442014;28;20311;-74
2020/12/07 14:04:07;;;;;;;4.80;4.40;;;8.30;43.80;;;;;;10430887;28;20264;-69
2020/12/07 14:09:10;;;;;;;4.27;3.97;;;8.30;43.70;;;;;;10442509;28;20395;-69
2020/12/07 14:14:15;;;;;;;5.10;4.70;;;8.20;43.80;;;;;;10439059;28;20232;-69
2020/12/07 14:19:38;;;;;;;3.80;3.50;;;8.20;43.90;;;;;;10439423;28;20695;-69
2020/12/07 14:24:50;;;;;;;4.13;3.83;;;8.20;43.80;;;;;;10439956;28;20304;-69
2020/12/07 14:40:36;;;;;;;4.00;3.70;;;8.10;43.90;;;;;;10446249;28;20261;-69
2020/12/07 14:45:52;;;;;;;3.97;3.57;;;8.10;43.80;;;;;;10444705;28;20229;-69
2020/12/07 14:50:58;;;;;;;3.67;3.47;;;7.90;43.60;;;;;;10447628;28;20638;-69
2020/12/07 14:56:07;;;;;;;3.83;3.53;;;8.00;43.70;;;;;;10446842;28;20225;-70
2020/12/07 15:01:29;;;;;;;3.23;3.03;;;8.00;43.90;;;;;;10440863;28;20226;-69
2020/12/07 15:06:42;;;;;;;3.63;3.37;;;8.00;44.10;;;;;;10438898;28;20252;-69
2020/12/07 15:12:04;;;;;;;3.47;3.23;;;7.90;43.90;;;;;;10447499;28;20228;-69
2020/12/07 15:17:07;;;;;;;3.73;3.53;;;7.90;44.10;;;;;;10423236;28;20729;-69
2020/12/07 15:22:14;;;;;;;3.90;3.60;;;7.90;44.20;;;;;;10456510;28;20237;-69
2020/12/07 15:27:18;;;;;;;4.37;3.90;;;7.90;44.00;;;;;;10445753;28;20235;-69
2020/12/07 15:32:24;;;;;;;4.93;4.53;;;7.90;44.10;;;;;;10446415;28;20228;-69
2020/12/07 15:37:30;;;;;;;5.10;4.70;;;7.80;44.00;;;;;;10428635;28;20356;-69
2020/12/07 15:42:34;;;;;;;5.80;5.30;;;7.90;44.10;;;;;;10445598;28;20232;-69
2020/12/07 15:47:47;;;;;;;6.03;5.53;;;7.80;44.00;;;;;;10443999;28;20700;-69
2020/12/07 15:52:53;;;;;;;11.73;10.80;;;7.80;44.10;;;;;;10442439;28;20221;-69
2020/12/07 15:57:56;;;;;;;9.80;9.00;;;7.80;44.20;;;;;;10445904;28;20228;-69
2020/12/07 16:03:03;;;;;;;8.50;7.80;;;7.80;44.00;;;;;;10433978;28;20332;-69
2020/12/07 16:08:06;;;;;;;8.47;7.87;;;7.70;43.90;;;;;;10444318;28;20235;-69
2020/12/07 16:13:08;;;;;;;9.23;8.53;;;7.70;44.00;;;;;;10442315;28;20605;-69
2020/12/07 16:18:10;;;;;;;13.10;12.10;;;7.70;44.00;;;;;;10438525;28;20228;-69
2020/12/07 16:23:13;;;;;;;10.33;9.53;;;7.60;43.90;;;;;;10445777;28;20225;-69
2020/12/07 16:28:16;;;;;;;9.10;8.40;;;7.60;44.00;;;;;;10442296;28;20312;-69
2020/12/07 16:33:18;;;;;;;10.20;9.30;;;7.60;44.00;;;;;;10444051;28;20597;-69
2020/12/07 16:38:21;;;;;;;9.23;8.53;;;7.50;44.00;;;;;;10442237;28;20233;-69
2020/12/07 16:43:24;;;;;;;9.07;8.37;;;7.50;44.10;;;;;;10444137;28;20247;-69
2020/12/07 16:48:26;;;;;;;9.10;8.40;;;7.50;44.20;;;;;;10444443;28;20233;-69
2020/12/07 16:53:29;;;;;;;8.63;7.93;;;7.50;44.10;;;;;;10437118;28;20263;-69
2020/12/07 16:58:32;;;;;;;8.97;8.27;;;7.50;44.10;;;;;;10438042;28;20213;-69
2020/12/07 17:03:38;;;;;;;8.67;7.97;;;7.40;44.00;;;;;;10433180;28;20238;-69
2020/12/07 17:08:41;;;;;;;8.47;7.77;;;7.40;44.10;;;;;;10441148;28;20225;-69
2020/12/07 17:13:44;;;;;;;17.87;16.27;;;7.40;44.00;;;;;;10434711;28;20239;-69
2020/12/07 17:18:49;;;;;;;8.37;7.67;;;7.40;44.10;;;;;;10434164;28;20297;-72
2020/12/07 17:23:52;;;;;;;11.63;8.00;;;7.30;45.20;;;;;;10435300;28;20604;-70
2020/12/07 17:28:55;;;;;;;8.63;7.93;;;7.40;47.20;;;;;;10439214;28;23407;-70
2020/12/07 17:34:00;;;;;;;7.83;7.23;;;7.50;45.80;;;;;;10435858;28;20239;-69
2020/12/07 17:39:05;;;;;;;6.90;6.40;;;7.70;45.00;;;;;;10440105;28;20225;-69
2020/12/07 17:44:11;;;;;;;8.97;8.27;;;7.70;44.50;;;;;;10435087;28;20236;-69
2020/12/07 17:49:14;;;;;;;9.40;8.60;;;7.70;44.30;;;;;;10433645;28;20264;-69
2020/12/07 17:54:18;;;;;;;9.10;8.40;;;7.70;43.90;;;;;;10444617;28;20231;-69
2020/12/07 17:59:20;;;;;;;9.87;8.97;;;7.70;43.70;;;;;;10436505;28;20318;-69
2020/12/07 18:04:22;;;;;;;11.10;10.00;;;7.60;43.60;;;;;;10427617;28;20229;-69
2020/12/07 18:09:30;;;;;;;10.40;9.50;;;7.60;43.40;;;;;;10445667;28;20294;-70
2020/12/07 18:14:33;;;;;;;12.33;11.13;;;7.50;43.40;;;;;;10445767;28;20243;-70
2020/12/07 18:19:35;;;;;;;13.90;12.70;;;7.50;43.50;;;;;;10439927;28;20223;-70
2020/12/07 18:24:38;;;;;;;12.37;11.17;;;7.40;43.20;;;;;;10442072;28;20221;-70
2020/12/07 18:29:41;;;;;;;12.30;11.10;;;7.40;43.10;;;;;;10446546;28;20263;-70
2020/12/07 18:34:43;;;;;;;10.87;9.97;;;7.30;43.00;;;;;;10446281;28;20936;-70
2020/12/07 18:39:46;;;;;;;10.90;9.90;;;7.30;43.20;;;;;;10446496;28;20257;-69
2020/12/07 18:44:49;;;;;;;11.10;10.20;;;7.20;43.20;;;;;;10444214;28;20260;-70
2020/12/07 18:49:51;;;;;;;10.70;9.70;;;7.10;43.10;;;;;;10443216;28;20227;-70
2020/12/07 18:54:54;;;;;;;8.57;7.87;;;7.00;43.20;;;;;;10440451;28;20697;-70
2020/12/07 18:59:56;;;;;;;8.47;7.77;;;7.00;43.20;;;;;;10439286;28;20247;-70
2020/12/07 19:04:59;;;;;;;8.40;7.70;;;6.90;43.40;;;;;;10447721;28;20225;-70
2020/12/07 19:10:03;;;;;;;7.50;6.80;;;6.90;43.50;;;;;;10444597;28;20616;-70
2020/12/07 19:15:06;;;;;;;6.67;6.10;;;6.90;43.60;;;;;;10442298;28;20221;-70
2020/12/07 19:20:11;;;;;;;6.73;6.23;;;6.90;43.60;;;;;;10446518;28;20241;-70
2020/12/07 19:25:17;;;;;;;7.30;6.70;;;6.80;43.60;;;;;;10438095;28;20278;-70
2020/12/07 19:30:20;;;;;;;10.37;9.47;;;6.80;43.70;;;;;;10445486;28;20233;-70
2020/12/07 19:35:23;;;;;;;9.57;8.77;;;6.80;43.60;;;;;;10444014;28;20242;-70
2020/12/07 19:40:26;;;;;;;9.03;8.27;;;6.80;43.50;;;;;;10444462;28;20239;-70
2020/12/07 19:45:31;;;;;;;9.87;9.07;;;6.80;43.40;;;;;;10435440;28;20221;-70
2020/12/07 19:50:34;;;;;;;8.20;7.40;;;6.80;43.30;;;;;;10439417;28;20271;-70
2020/12/07 19:55:37;;;;;;;7.67;7.07;;;6.70;43.30;;;;;;10438717;28;20247;-70
2020/12/07 20:00:39;;;;;;;7.80;7.20;;;6.70;43.30;;;;;;10443587;28;20263;-74
2020/12/07 20:05:42;;;;;;;7.17;6.57;;;6.70;43.40;;;;;;10423535;22;20223;-80
2020/12/07 20:10:45;;;;;;;7.10;6.50;;;6.60;43.20;;;;;;10379321;28;20297;-84
2020/12/07 20:15:47;;;;;;;7.53;6.90;;;6.50;43.10;;;;;;10384092;28;20249;-84
2020/12/07 20:20:50;;;;;;;6.87;6.27;;;6.60;43.20;;;;;;10391218;28;20257;-84
2020/12/07 20:25:53;;;;;;;6.63;6.03;;;6.60;43.20;;;;;;10381578;28;20249;-86
2020/12/07 20:30:56;;;;;;;7.10;6.57;;;6.50;43.10;;;;;;10369565;28;20639;-85
2020/12/07 20:35:58;;;;;;;6.30;5.80;;;6.50;43.80;;;;;;10382109;28;20317;-85
2020/12/07 20:41:01;;;;;;;6.67;6.17;;;6.50;43.70;;;;;;10391729;28;20218;-85
2020/12/07 20:46:06;;;;;;;7.63;7.03;;;6.40;43.00;;;;;;10403133;28;20296;-85
2020/12/07 20:51:10;;;;;;;6.90;6.40;;;6.40;43.00;;;;;;10394013;28;20234;-85
2020/12/07 20:56:13;;;;;;;7.77;7.00;;;6.30;43.00;;;;;;10405564;28;20230;-84
2020/12/07 21:01:16;;;;;;;7.20;6.63;;;6.30;43.00;;;;;;10380336;28;20273;-84
2020/12/07 21:06:19;;;;;;;7.23;6.63;;;6.30;43.10;;;;;;10384265;28;20316;-83
2020/12/07 21:11:23;;;;;;;6.60;6.10;;;6.20;42.90;;;;;;10384240;28;20236;-83
2020/12/07 21:16:25;;;;;;;8.30;7.60;;;6.20;42.80;;;;;;10385673;28;20649;-83
2020/12/07 21:21:28;;;;;;;7.33;6.73;;;6.10;42.70;;;;;;10369555;28;20295;-83
2020/12/07 21:26:31;;;;;;;7.13;6.43;;;6.00;42.70;;;;;;10400553;28;20237;-83
2020/12/07 21:31:34;;;;;;;6.50;6.00;;;5.90;42.90;;;;;;10383117;28;20318;-82
2020/12/07 21:36:36;;;;;;;7.63;7.03;;;5.90;43.00;;;;;;10375686;28;20804;-81
2020/12/07 21:41:41;;;;;;;7.17;6.57;;;5.90;43.00;;;;;;10374757;28;20242;-81
2020/12/07 21:46:43;;;;;;;8.97;8.27;;;5.80;42.80;;;;;;10376790;28;20345;-80
2020/12/07 21:51:46;;;;;;;10.37;9.37;;;5.70;42.60;;;;;;10373957;28;20698;-81
2020/12/07 21:56:49;;;;;;;14.03;11.97;;;5.60;42.60;;;;;;10390080;28;20268;-81
2020/12/07 22:01:52;;;;;;;11.53;10.43;;;5.50;42.60;;;;;;10386670;28;20665;-81
2020/12/07 22:06:54;;;;;;;10.33;9.33;;;5.50;42.60;;;;;;10383437;28;20310;-82
2020/12/07 22:12:02;;;;;;;11.13;9.97;;;5.50;42.60;;;;;;10380831;28;20253;-82
2020/12/07 22:17:04;;;;;;;10.30;9.17;;;5.40;42.40;;;;;;10372430;28;20222;-81
2020/12/07 22:22:07;;;;;;;8.43;7.73;;;5.30;42.80;;;;;;10379036;28;20321;-81
2020/12/07 22:27:10;;;;;;;9.43;8.60;;;5.30;43.00;;;;;;10382082;28;20226;-82
2020/12/07 22:32:12;;;;;;;8.57;7.80;;;5.30;43.00;;;;;;10384268;28;20297;-81
2020/12/07 22:37:15;;;;;;;9.73;8.83;;;5.30;43.00;;;;;;10377977;28;20267;-82
2020/12/07 22:42:18;;;;;;;10.17;9.17;;;5.30;43.00;;;;;;10391015;28;20788;-82
2020/12/07 22:47:20;;;;;;;7.60;6.83;;;5.30;43.00;;;;;;10378574;28;20273;-83
2020/12/07 22:52:23;;;;;;;9.47;8.63;;;5.30;43.30;;;;;;10376530;28;20894;-83
2020/12/07 22:57:26;;;;;;;9.03;8.23;;;5.30;43.00;;;;;;10380729;28;20257;-81
2020/12/07 23:02:29;;;;;;;10.00;9.10;;;5.30;43.20;;;;;;10393163;28;20662;-81
2020/12/07 23:07:32;;;;;;;12.13;11.03;;;5.30;43.20;;;;;;10382677;28;20222;-81
2020/12/07 23:12:35;;;;;;;11.63;10.60;;;5.30;43.00;;;;;;10386858;28;20333;-82
2020/12/07 23:17:37;;;;;;;10.90;9.90;;;5.20;43.60;;;;;;10380572;28;20310;-82
2020/12/07 23:22:39;;;;;;;9.70;8.80;;;5.20;42.90;;;;;;10379458;28;20250;-83
2020/12/07 23:27:42;;;;;;;10.20;9.30;;;5.20;42.90;;;;;;10382217;28;20312;-82
2020/12/07 23:32:45;;;;;;;9.73;8.83;;;5.10;42.80;;;;;;10361444;22;20228;-73
2020/12/07 23:37:48;;;;;;;10.13;9.13;;;5.10;42.90;;;;;;10316907;28;20220;-75
2020/12/07 23:42:51;;;;;;;10.47;9.50;;;5.00;42.70;;;;;;10316694;28;20235;-75
2020/12/07 23:47:53;;;;;;;10.10;9.20;;;5.00;42.90;;;;;;10330728;28;20298;-75
2020/12/07 23:52:56;;;;;;;9.30;8.40;;;5.00;43.10;;;;;;10318302;28;20236;-75
2020/12/07 23:57:59;;;;;;;10.30;9.40;;;5.00;43.30;;;;;;10314397;28;20310;-75
